Morningstar Inc (MORN) Latest Bloomsberg Price


Mffais Ranking #1971 Overall / #4 Industry
Industry: Information Services

Number of Companies: 116 (Ranking #1459 Overall/#14 Industry)
Inflow: $ 51,088 (K) (Ranking #1297 Overall/#13 Industry)
Outflow: $ -65,870 (K)
Mffais Flow: $ -14,782 (K) (Ranking #1971 Overall/#4 Industry)


Receive a FREE weekly executive review of stocks moving into the top 10, taking the top industy spot or moving up within their industry. Sent directly to your Inbox every Saturday. Sign up today and get last week's review immediately sent to you.

We value and respect your privacy. Please read our Terms and Conditions which states our firm commitment to your privacy. Your email address will not be shared with a third party, nor will it be sold or used for purposes other than subscription for the weekly review.

Owner CPOR Shares Action Qty Chg Invested (K) Total Current Value (K)
American Capital Management Inc 2016-09-30 203,991 New Holding 203,991 $ 17,243 $ 17,243
Bessemer Group Inc 2016-09-30 175,852 New Holding 175,852 $ 14,864 $ 14,864
Emerald Acquisition Ltd 2016-09-30 104,722 Added More 39,080 $ 3,303 $ 8,852
Leuthold Group Llc 2016-09-30 26,598 New Holding 26,598 $ 2,248 $ 2,248
First Quadrant L P Ca 2016-09-30 20,310 Added More 19,675 $ 1,663 $ 1,716
Northern Trust Corp 2016-09-30 266,718 Added More 19,646 $ 1,660 $ 22,545
Pacific Global Investment Management Co 2016-09-30 12,725 New Holding 12,725 $ 1,075 $ 1,075
Ahl Partners Llp 2016-09-30 12,031 New Holding 12,031 $ 1,016 $ 1,016
Teachers Advisors Inc 2016-09-30 31,516 Added More 10,861 $ 918 $ 2,664
Clinton Group Inc 2016-09-30 15,754 Added More 10,814 $ 914 $ 1,331
Ramsey Quantitative Systems 2016-09-30 9,208 New Holding 9,208 $ 778 $ 778
Confluence Investment Management Llc 2016-09-30 153,995 Added More 7,512 $ 634 $ 13,017
Twin Capital Management Inc 2016-09-30 10,690 Added More 6,350 $ 536 $ 903
Dimensional Fund Advisors Lp 2016-09-30 257,412 Added More 6,044 $ 510 $ 21,759
Sei Investments Co 2016-09-30 21,303 Added More 5,852 $ 494 $ 1,800
Blackrock Inc 2016-09-30 11,153 Added More 5,751 $ 486 $ 942
Kcg Holdings Inc 2016-09-30 4,707 New Holding 4,707 $ 397 $ 397
Secor Capital Advisors Lp 2016-09-30 15,969 Added More 4,407 $ 372 $ 1,349
Highbridge Capital Management Llc 2016-09-30 51,426 Added More 4,402 $ 372 $ 4,347
Peak6 Investments L P 2016-09-30 4,212 New Holding 4,212 $ 356 $ 356
Zebra Capital Management Llc 2016-09-30 22,418 Added More 3,621 $ 306 $ 1,894
Dynamic Technology Lab Private Ltd 2016-09-30 6,349 Added More 3,202 $ 270 $ 536
Johnson Investment Counsel Inc 2016-09-30 8,539 Added More 2,000 $ 169 $ 721
Us Bancorp De 2016-09-30 15,652 Added More 1,163 $ 98 $ 1,323
Ladenburg Thalmann Financial Services Inc 2016-09-30 1,857 Added More 889 $ 75 $ 156
Legal General Group Plc 2016-09-30 2,589 Added More 618 $ 52 $ 218
Aperio Group Llc 2016-09-30 8,959 Added More 564 $ 47 $ 757
Fuller Thaler Asset Management Inc 2016-09-30 695 Added More 500 $ 42 $ 58
Landscape Capital Management L L C 2016-09-30 14,201 Added More 476 $ 40 $ 1,200
California State Teachers Retirement System 2016-09-30 38,194 Added More 400 $ 33 $ 3,228
Tower Research Capital Llc Trc 2016-09-30 255 New Holding 255 $ 21 $ 21
Yhb Investment Advisors Inc 2016-09-30 17,961 Added More 200 $ 16 $ 1,518
Woodmont Investment Counsel Llc 2016-09-30 184 New Holding 184 $ 15 $ 15
Pacer Advisors Inc 2016-09-30 1,714 Added More 144 $ 12 $ 144
Avalon Advisors Llc 2016-09-30 14,025 Added More 95 $ 8 $ 1,185
Penserra Capital Management Llc 2016-09-30 225 Added More 90 $ 7 $ 19
Pnc Financial Services Group Inc 2016-09-30 1,826 Added More 86 $ 7 $ 154
Zurcher Kantonalbank Zurich Cantonalbank 2016-09-30 563 Added More 76 $ 6 $ 47
Apriem Advisors 2016-09-30 64 New Holding 64 $ 5 $ 5
Creative Planning 2016-09-30 97 Added More 33 $ 2 $ 8
Msi Financial Services Inc 2016-09-30 287 Added More 1 $ 0 $ 24
Pekin Singer Strauss Asset Management Il 2016-09-30 3,534 Added More 1 $ 0 $ 298
New York State Common Retirement Fund 2016-09-30 118,100 No Change 0 $ 0 $ 9,982
Bank Of Nova Scotia 2016-09-30 5,760 No Change 0 $ 0 $ 486
Brown Brothers Harriman Co 2016-09-30 238 No Change 0 $ 0 $ 20
City Holding Co 2016-09-30 62 No Change 0 $ 0 $ 5
First Manhattan Co 2016-09-30 1,269 No Change 0 $ 0 $ 107
Royce Associates Lp 2016-09-30 988,696 No Change 0 $ 0 $ 83,574
Globeflex Capital L P 2016-09-30 10,200 No Change 0 $ 0 $ 862
Bradley Foster Sargent Inc Ct 2016-09-30 3,160 No Change 0 $ 0 $ 267
Duncker Streett Co Inc 2016-09-30 63 No Change 0 $ 0 $ 5
Morgan Dempsey Capital Management Llc 2016-09-30 855 No Change 0 $ 0 $ 72
Omers Administration Corp 2016-09-30 4,200 No Change 0 $ 0 $ 355
High Point Bank Trust Co 2016-09-30 253 No Change 0 $ 0 $ 21
Blackrock Investment Management Llc 2016-09-30 6,698 No Change 0 $ 0 $ 566
Ledyard National Bank 2016-09-30 245 No Change 0 $ 0 $ 20
Contravisory Investment Management Inc 2016-09-30 1,538 No Change 0 $ 0 $ 130
Stanford Investment Group Inc 2016-09-30 800 No Change 0 $ 0 $ 67
Benjamin F Edwards Company Inc 2016-09-30 35 No Change 0 $ 0 $ 2
Qs Investors Llc 2016-09-30 4 No Change 0 $ 0 $ 0
Kistler-Tiffany Companies Llc 2016-09-30 267 No Change 0 $ 0 $ 22
Utah Retirement Systems 2016-09-30 3,290 No Change 0 $ 0 $ 278
Parkwood Llc 2016-09-30 5,529 No Change 0 $ 0 $ 467
Acrospire Investment Management Llc 2016-09-30 185 No Change 0 $ 0 $ 15
Ifp Advisors Inc 2016-09-30 130 No Change 0 $ 0 $ 10
Proficio Capital Partners Llc 2016-09-30 46 No Change 0 $ 0 $ 3
Bronfman E L Rothschild L P 2016-09-30 200 No Change 0 $ 0 $ 16
Massmutual Trust Co Fsb Adv 2016-06-30 0 New Holding 0 $ 0 $ 0
M T Bank Corp 2016-09-30 5,431 Sold Some -4 $ -0 $ 459
American International Group Inc 2016-09-30 422 Sold Some -19 $ -1 $ 35
Next Financial Group Inc 2016-09-30 27 Sold Some -25 $ -2 $ 2
Cutler Group Lp 2016-09-30 849 Sold Some -51 $ -4 $ 71
Financial Management Professionals Inc 2016-09-30 0 Sold All -64 $ -5 $ 0
Simplex Trading Llc 2016-09-30 0 Sold All -71 $ -6 $ 0
Synovus Financial Corp 2016-09-30 2,023 Sold Some -75 $ -6 $ 171
Advisor Group Inc 2016-09-30 458 Sold Some -86 $ -7 $ 38
Commerce Bank 2016-09-30 3,334 Sold Some -100 $ -8 $ 281
Pinebridge Investments L P 2016-09-30 400 Sold Some -100 $ -8 $ 33
Rhumbline Advisers 2016-09-30 22,241 Sold Some -165 $ -13 $ 1,880
Horizon Kinetics Llc 2016-09-30 5,154 Sold Some -189 $ -15 $ 435
Raymond James Associates 2016-09-30 3,198 Sold Some -200 $ -16 $ 270
Checchi Capital Advisers Llc 2016-09-30 0 Sold All -202 $ -17 $ 0
Kanaly Trust Co 2016-09-30 88 Sold Some -209 $ -17 $ 7
Tdam Usa Inc 2016-09-30 14,152 Sold Some -250 $ -21 $ 1,196
Quantbot Technologies Lp 2016-09-30 0 Sold All -523 $ -44 $ 0
Kayne Anderson Rudnick Investment Management Llc 2016-09-30 206,032 Sold Some -753 $ -63 $ 17,415
Cornerstone Capital Management Holdings Llc 2016-09-30 49,415 Sold Some -843 $ -71 $ 4,177
Fdx Advisors Inc 2016-09-30 10,105 Sold Some -1,106 $ -93 $ 854
Swiss National Bank 2016-09-30 31,600 Sold Some -1,200 $ -101 $ 2,671
Nationwide Fund Advisors 2016-09-30 25,628 Sold Some -1,207 $ -102 $ 2,166
Sg Americas Securities Llc 2016-09-30 0 Sold All -1,252 $ -105 $ 0
Tlp Group Llc 2016-09-30 0 Sold All -1,705 $ -144 $ 0
Guggenheim Capital Llc 2016-09-30 15,537 Sold Some -1,901 $ -160 $ 1,313
Tudor Investment Corp Et Al 2016-09-30 5,928 Sold Some -1,958 $ -165 $ 501
Kornitzer Capital Management Inc Ks 2016-09-30 21,590 Sold Some -2,250 $ -190 $ 1,825
Teacher Retirement System Of Texas 2016-09-30 0 Sold All -2,781 $ -235 $ 0
Squarepoint Ops Llc 2016-09-30 0 Sold All -3,100 $ -262 $ 0
Blair William Co Il 2016-09-30 250,565 Sold Some -3,569 $ -301 $ 21,180
Martingale Asset Management L P 2016-09-30 102,855 Sold Some -3,600 $ -304 $ 8,694
Envestnet Asset Management Inc 2016-09-30 3,498 Sold Some -4,658 $ -393 $ 295
Alps Advisors Inc 2016-09-30 0 Sold All -4,802 $ -405 $ 0
Oshaughnessy Asset Management Llc 2016-09-30 7,000 Sold Some -4,831 $ -408 $ 591
Capital Fund Management S A 2016-09-30 22,679 Sold Some -5,599 $ -473 $ 1,917
Kames Capital Plc 2016-09-30 20,425 Sold Some -6,266 $ -529 $ 1,726
Thrivent Financial For Lutherans 2016-09-30 0 Sold All -6,530 $ -551 $ 0
Panagora Asset Management Inc 2016-09-30 2,090 Sold Some -7,591 $ -641 $ 176
Parametric Portfolio Associates Llc 2016-09-30 243,172 Sold Some -10,135 $ -856 $ 20,555
Convergence Investment Partners Llc 2016-09-30 0 Sold All -10,344 $ -874 $ 0
Dupont Capital Management Corp 2016-09-30 0 Sold All -12,700 $ -1,073 $ 0
Welch Forbes Llc 2016-09-30 53,515 Sold Some -16,410 $ -1,387 $ 4,523
Jacobs Levy Equity Management Inc 2016-09-30 22,280 Sold Some -18,800 $ -1,589 $ 1,883
Denali Advisors Llc 2016-09-30 0 Sold All -24,500 $ -2,070 $ 0
Atlanta Capital Management Co L L C 2016-09-30 3,343,318 Sold Some -29,685 $ -2,509 $ 282,610
Perkins Investment Management Llc 2016-09-30 5,000 Sold Some -132,583 $ -11,207 $ 422
Lord Abbett Co Llc 2016-09-30 0 Sold All -207,818 $ -17,566 $ 0
Ashe Capital Management Lp 2016-09-30 419,656 Sold Some -246,444 $ -20,831 $ 35,473